createdAt,value
2017-12-17T00:00:29.481Z,1006.18
2017-12-17T00:01:10.074Z,1006.15
2017-12-17T00:01:50.630Z,1006.12
2017-12-17T00:02:31.220Z,1006.2
2017-12-17T00:03:11.820Z,1006.2
2017-12-17T00:03:52.391Z,1006.15
2017-12-17T00:04:32.965Z,1006.23
2017-12-17T00:05:13.525Z,1006.22
2017-12-17T00:05:54.092Z,1006.17
2017-12-17T00:06:34.644Z,1006.18
2017-12-17T00:07:15.213Z,1006.18
2017-12-17T00:07:55.795Z,1006.2
2017-12-17T00:08:36.351Z,1006.15
2017-12-17T00:09:16.905Z,1006.24
2017-12-17T00:09:57.488Z,1006.19
2017-12-17T00:10:38.037Z,1006.25
2017-12-17T00:11:18.596Z,1006.16
2017-12-17T00:11:59.178Z,1006.22
2017-12-17T00:12:39.800Z,1006.19
2017-12-17T00:13:20.324Z,1006.21
2017-12-17T00:14:00.891Z,1006.22
2017-12-17T00:14:41.482Z,1006.24
2017-12-17T00:15:22.054Z,1006.21
2017-12-17T00:16:02.654Z,1006.24
2017-12-17T00:16:43.238Z,1006.23
2017-12-17T00:17:23.995Z,1006.25
2017-12-17T00:18:04.576Z,1006.29
2017-12-17T00:18:45.125Z,1006.32
2017-12-17T00:19:25.684Z,1006.25
2017-12-17T00:20:06.246Z,1006.28
2017-12-17T00:20:46.820Z,1006.28
2017-12-17T00:21:27.386Z,1006.29
2017-12-17T00:22:07.952Z,1006.29
2017-12-17T00:22:48.516Z,1006.29
2017-12-17T00:23:29.150Z,1006.29
2017-12-17T00:24:09.728Z,1006.32
2017-12-17T00:24:50.286Z,1006.27
2017-12-17T00:25:30.866Z,1006.27
2017-12-17T00:26:11.419Z,1006.28
2017-12-17T00:26:52.001Z,1006.24
2017-12-17T00:27:32.575Z,1006.26
2017-12-17T00:28:13.160Z,1006.26
2017-12-17T00:28:53.732Z,1006.26
2017-12-17T00:29:34.304Z,1006.25
2017-12-17T00:30:14.870Z,1006.26
2017-12-17T00:30:55.424Z,1006.29
2017-12-17T00:31:36.001Z,1006.26
2017-12-17T00:32:16.564Z,1006.3
2017-12-17T00:32:57.133Z,1006.31
2017-12-17T00:33:37.721Z,1006.33
2017-12-17T00:34:18.324Z,1006.33
2017-12-17T00:34:58.943Z,1006.29
2017-12-17T00:35:39.488Z,1006.33
2017-12-17T00:36:20.075Z,1006.35
2017-12-17T00:37:00.652Z,1006.35
2017-12-17T00:37:41.212Z,1006.39
2017-12-17T00:38:21.789Z,1006.36
2017-12-17T00:39:02.348Z,1006.36
2017-12-17T00:39:42.937Z,1006.38
2017-12-17T00:40:23.496Z,1006.41
2017-12-17T00:41:04.074Z,1006.37
2017-12-17T00:41:44.657Z,1006.41
2017-12-17T00:42:25.234Z,1006.37
2017-12-17T00:43:05.804Z,1006.41
2017-12-17T00:43:46.396Z,1006.41
2017-12-17T00:44:26.953Z,1006.43
2017-12-17T00:45:07.515Z,1006.45
2017-12-17T00:45:48.123Z,1006.49
2017-12-17T00:46:28.708Z,1006.48
2017-12-17T00:47:09.312Z,1006.48
2017-12-17T00:47:49.918Z,1006.47
2017-12-17T00:48:30.553Z,1006.48
2017-12-17T00:49:11.184Z,1006.51
2017-12-17T00:49:51.765Z,1006.51
2017-12-17T00:50:32.321Z,1006.53
2017-12-17T00:51:12.887Z,1006.55
2017-12-17T00:51:53.450Z,1006.54
2017-12-17T00:52:34.036Z,1006.51
2017-12-17T00:53:14.612Z,1006.56
2017-12-17T00:53:55.187Z,1006.59
2017-12-17T00:54:35.796Z,1006.57
2017-12-17T00:55:16.354Z,1006.55
2017-12-17T00:55:56.916Z,1006.57
2017-12-17T00:56:37.522Z,1006.55
2017-12-17T00:57:18.145Z,1006.57
2017-12-17T00:57:58.721Z,1006.54
2017-12-17T00:58:39.325Z,1006.53
2017-12-17T00:59:19.894Z,1006.52
2017-12-17T01:00:00.460Z,1006.54
2017-12-17T01:00:41.021Z,1006.49
2017-12-17T01:01:21.588Z,1006.52
2017-12-17T01:02:02.198Z,1006.5
2017-12-17T01:02:42.768Z,1006.51
2017-12-17T01:03:23.341Z,1006.49
2017-12-17T01:04:03.913Z,1006.52
2017-12-17T01:04:44.481Z,1006.54
2017-12-17T01:05:25.050Z,1006.56
2017-12-17T01:06:05.646Z,1006.55
2017-12-17T01:06:46.215Z,1006.59
2017-12-17T01:07:26.838Z,1006.56
2017-12-17T01:08:07.395Z,1006.56
2017-12-17T01:08:47.974Z,1006.56
2017-12-17T01:09:28.556Z,1006.6
2017-12-17T01:10:09.132Z,1006.63
2017-12-17T01:10:49.702Z,1006.59
2017-12-17T01:11:30.282Z,1006.57
2017-12-17T01:12:10.881Z,1006.61
2017-12-17T01:12:51.447Z,1006.6
2017-12-17T01:13:32.013Z,1006.62
2017-12-17T01:14:12.606Z,1006.64
2017-12-17T01:14:53.190Z,1006.65
2017-12-17T01:15:33.789Z,1006.64
2017-12-17T01:16:14.366Z,1006.65
2017-12-17T01:16:54.955Z,1006.68
2017-12-17T01:17:35.528Z,1006.65
2017-12-17T01:18:16.096Z,1006.67
2017-12-17T01:18:56.658Z,1006.65
2017-12-17T01:19:37.248Z,1006.68
2017-12-17T01:20:17.807Z,1006.66
2017-12-17T01:20:58.401Z,1006.68
2017-12-17T01:21:39.002Z,1006.67
2017-12-17T01:22:19.577Z,1006.69
2017-12-17T01:23:00.148Z,1006.66
2017-12-17T01:23:40.713Z,1006.66
2017-12-17T01:24:21.279Z,1006.66
2017-12-17T01:25:01.858Z,1006.69
2017-12-17T01:25:42.417Z,1006.7
2017-12-17T01:26:23.007Z,1006.73
2017-12-17T01:27:03.597Z,1006.74
2017-12-17T01:27:44.178Z,1006.73
2017-12-17T01:28:24.758Z,1006.76
2017-12-17T01:29:05.315Z,1006.75
2017-12-17T01:29:45.889Z,1006.76
2017-12-17T01:30:26.466Z,1006.77
2017-12-17T01:31:07.027Z,1006.76
2017-12-17T01:31:47.592Z,1006.75
2017-12-17T01:32:28.167Z,1006.78
2017-12-17T01:33:08.730Z,1006.77
2017-12-17T01:33:49.297Z,1006.78
2017-12-17T01:34:29.854Z,1006.81
2017-12-17T01:35:10.434Z,1006.85
2017-12-17T01:35:51.017Z,1006.82
2017-12-17T01:36:31.584Z,1006.82
2017-12-17T01:37:12.147Z,1006.78
2017-12-17T01:37:52.722Z,1006.81
2017-12-17T01:38:33.294Z,1006.76
2017-12-17T01:39:13.885Z,1006.78
2017-12-17T01:39:54.449Z,1006.77
2017-12-17T01:40:35.012Z,1006.79
2017-12-17T01:41:15.596Z,1006.81
2017-12-17T01:41:56.196Z,1006.78
2017-12-17T01:42:36.799Z,1006.81
2017-12-17T01:43:17.399Z,1006.82
2017-12-17T01:43:57.961Z,1006.78
2017-12-17T01:44:38.531Z,1006.74
2017-12-17T01:45:19.103Z,1006.77
2017-12-17T01:45:59.675Z,1006.76
2017-12-17T01:46:40.245Z,1006.79
2017-12-17T01:47:20.817Z,1006.8
2017-12-17T01:48:01.380Z,1006.77
2017-12-17T01:48:42.001Z,1006.8
2017-12-17T01:49:22.564Z,1006.79
2017-12-17T01:50:03.158Z,1006.79
2017-12-17T01:50:43.727Z,1006.79
2017-12-17T01:51:24.291Z,1006.83
2017-12-17T01:52:04.871Z,1006.83
2017-12-17T01:52:45.469Z,1006.85
2017-12-17T01:53:26.034Z,1006.85
2017-12-17T01:54:06.616Z,1006.81
2017-12-17T01:54:47.174Z,1006.84
2017-12-17T01:55:27.737Z,1006.87
2017-12-17T01:56:08.306Z,1006.81
2017-12-17T01:56:48.873Z,1006.84
2017-12-17T01:57:30.190Z,1006.82
2017-12-17T01:58:10.764Z,1006.84
2017-12-17T01:58:51.342Z,1006.91
2017-12-17T01:59:31.936Z,1006.88
2017-12-17T02:00:12.568Z,1006.87
2017-12-17T02:00:53.129Z,1006.88
2017-12-17T02:01:33.709Z,1006.91
2017-12-17T02:02:14.295Z,1006.86
2017-12-17T02:02:54.862Z,1006.86
2017-12-17T02:03:35.433Z,1006.89
2017-12-17T02:04:15.992Z,1006.89
2017-12-17T02:04:56.648Z,1006.9
2017-12-17T02:05:37.215Z,1006.85
2017-12-17T02:06:17.785Z,1006.88
2017-12-17T02:06:58.374Z,1006.89
2017-12-17T02:07:38.948Z,1006.97
2017-12-17T02:08:19.503Z,1006.93
2017-12-17T02:09:00.077Z,1006.96
2017-12-17T02:09:40.625Z,1006.94
2017-12-17T02:10:21.172Z,1006.9
2017-12-17T02:11:01.720Z,1006.97
2017-12-17T02:11:42.302Z,1006.95
2017-12-17T02:12:22.847Z,1006.91
2017-12-17T02:13:03.426Z,1006.9
2017-12-17T02:13:43.987Z,1006.93
2017-12-17T02:14:24.556Z,1006.96
2017-12-17T02:15:05.116Z,1006.95
2017-12-17T02:15:45.686Z,1006.97
2017-12-17T02:16:26.246Z,1006.97
2017-12-17T02:17:06.812Z,1006.94
2017-12-17T02:17:47.379Z,1006.99
2017-12-17T02:18:27.958Z,1006.96
2017-12-17T02:19:08.513Z,1006.99
2017-12-17T02:19:49.100Z,1007.01
2017-12-17T02:20:29.676Z,1007.03
2017-12-17T02:21:10.242Z,1007.05
2017-12-17T02:21:50.811Z,1007.05
2017-12-17T02:22:31.363Z,1007.03
2017-12-17T02:23:11.956Z,1007.02
2017-12-17T02:23:52.514Z,1007.04
2017-12-17T02:24:33.073Z,1007.04
2017-12-17T02:25:13.667Z,1007.02
2017-12-17T02:25:54.237Z,1007.04
2017-12-17T02:26:34.817Z,1007.04
2017-12-17T02:27:15.377Z,1007.1
2017-12-17T02:27:55.939Z,1007.09
2017-12-17T02:28:36.503Z,1007.07
2017-12-17T02:29:17.077Z,1007.06
2017-12-17T02:29:57.632Z,1007.08
2017-12-17T02:30:38.230Z,1007.05
2017-12-17T02:31:18.819Z,1007.02
2017-12-17T02:31:59.394Z,1007.06
2017-12-17T02:32:39.965Z,1007.04
2017-12-17T02:33:20.626Z,1007.06
2017-12-17T02:34:01.165Z,1007.07
2017-12-17T02:34:41.731Z,1007.02
2017-12-17T02:35:22.296Z,1007.04
2017-12-17T02:36:02.869Z,1007.06
2017-12-17T02:36:43.435Z,1007.07
2017-12-17T02:37:24.042Z,1007.09
2017-12-17T02:38:04.655Z,1007.09
2017-12-17T02:38:45.218Z,1007.13
2017-12-17T02:39:25.794Z,1007.1
2017-12-17T02:40:06.346Z,1007.14
2017-12-17T02:40:46.926Z,1007.13
2017-12-17T02:41:27.490Z,1007.16
2017-12-17T02:42:08.063Z,1007.2
2017-12-17T02:42:48.633Z,1007.21
2017-12-17T02:43:29.208Z,1007.21
2017-12-17T02:44:09.799Z,1007.18
2017-12-17T02:44:50.360Z,1007.2
2017-12-17T02:45:30.935Z,1007.19
2017-12-17T02:46:11.548Z,1007.19
2017-12-17T02:46:52.143Z,1007.25
2017-12-17T02:47:32.712Z,1007.18
2017-12-17T02:48:13.276Z,1007.26
2017-12-17T02:48:53.844Z,1007.24
2017-12-17T02:49:34.405Z,1007.27
2017-12-17T02:50:14.982Z,1007.2
2017-12-17T02:50:55.566Z,1007.28
2017-12-17T02:51:36.137Z,1007.23
2017-12-17T02:52:16.702Z,1007.24
2017-12-17T02:52:57.304Z,1007.25
2017-12-17T02:53:37.875Z,1007.2
2017-12-17T02:54:18.437Z,1007.2
2017-12-17T02:54:59.026Z,1007.24
2017-12-17T02:55:39.592Z,1007.24
2017-12-17T02:56:20.154Z,1007.26
2017-12-17T02:57:00.718Z,1007.23
2017-12-17T02:57:41.275Z,1007.22
2017-12-17T02:58:21.835Z,1007.27
2017-12-17T02:59:02.402Z,1007.28
2017-12-17T02:59:42.980Z,1007.27
2017-12-17T03:00:23.573Z,1007.26
2017-12-17T03:01:04.116Z,1007.26
2017-12-17T03:01:44.670Z,1007.26
2017-12-17T03:02:25.237Z,1007.28
2017-12-17T03:03:05.796Z,1007.29
2017-12-17T03:03:46.382Z,1007.32
2017-12-17T03:04:26.948Z,1007.3
2017-12-17T03:05:07.515Z,1007.34
2017-12-17T03:05:48.076Z,1007.3
2017-12-17T03:06:28.663Z,1007.27
2017-12-17T03:07:09.221Z,1007.26
2017-12-17T03:07:49.789Z,1007.31
2017-12-17T03:08:30.382Z,1007.3
2017-12-17T03:09:10.941Z,1007.33
2017-12-17T03:09:51.521Z,1007.31
2017-12-17T03:10:32.133Z,1007.3
2017-12-17T03:11:12.697Z,1007.31
2017-12-17T03:11:53.274Z,1007.32
2017-12-17T03:12:33.845Z,1007.33
2017-12-17T03:13:14.443Z,1007.31
2017-12-17T03:13:55.000Z,1007.33
2017-12-17T03:14:35.583Z,1007.32
2017-12-17T03:15:16.168Z,1007.32
2017-12-17T03:15:56.734Z,1007.37
2017-12-17T03:16:37.293Z,1007.39
2017-12-17T03:17:17.848Z,1007.34
2017-12-17T03:17:58.449Z,1007.33
2017-12-17T03:18:39.053Z,1007.4
2017-12-17T03:19:19.647Z,1007.4
2017-12-17T03:20:00.223Z,1007.38
2017-12-17T03:20:40.787Z,1007.45
2017-12-17T03:21:21.349Z,1007.43
2017-12-17T03:22:01.943Z,1007.44
2017-12-17T03:22:42.521Z,1007.42
2017-12-17T03:23:23.080Z,1007.44
2017-12-17T03:24:03.644Z,1007.46
2017-12-17T03:24:44.245Z,1007.45
2017-12-17T03:25:24.809Z,1007.48
2017-12-17T03:26:05.381Z,1007.43
2017-12-17T03:26:45.952Z,1007.44
2017-12-17T03:27:26.519Z,1007.5
2017-12-17T03:28:07.107Z,1007.44
2017-12-17T03:28:47.706Z,1007.46
2017-12-17T03:29:28.268Z,1007.48
2017-12-17T03:30:08.830Z,1007.52
2017-12-17T03:30:49.418Z,1007.52
2017-12-17T03:31:30.007Z,1007.55
2017-12-17T03:32:10.565Z,1007.51
2017-12-17T03:32:51.128Z,1007.48
2017-12-17T03:33:31.703Z,1007.48
2017-12-17T03:34:12.270Z,1007.51
2017-12-17T03:34:52.865Z,1007.5
2017-12-17T03:35:33.428Z,1007.49
2017-12-17T03:36:14.041Z,1007.52
2017-12-17T03:36:54.607Z,1007.54
2017-12-17T03:37:35.178Z,1007.51
2017-12-17T03:38:15.758Z,1007.56
2017-12-17T03:38:56.333Z,1007.55
2017-12-17T03:39:36.902Z,1007.55
2017-12-17T03:40:17.470Z,1007.56
2017-12-17T03:40:58.058Z,1007.55
2017-12-17T03:41:38.629Z,1007.54
2017-12-17T03:42:19.199Z,1007.55
2017-12-17T03:42:59.780Z,1007.56
2017-12-17T03:43:40.344Z,1007.52
2017-12-17T03:44:20.917Z,1007.55
2017-12-17T03:45:01.483Z,1007.55
2017-12-17T03:45:42.069Z,1007.59
2017-12-17T03:46:22.628Z,1007.53
2017-12-17T03:47:03.204Z,1007.58
2017-12-17T03:47:43.777Z,1007.63
2017-12-17T03:48:24.334Z,1007.59
2017-12-17T03:49:04.907Z,1007.64
2017-12-17T03:49:47.383Z,1007.65
2017-12-17T03:50:27.965Z,1007.59
2017-12-17T03:51:08.533Z,1007.64
2017-12-17T03:51:49.098Z,1007.65
2017-12-17T03:52:29.684Z,1007.66
2017-12-17T03:53:10.271Z,1007.66
2017-12-17T03:53:50.838Z,1007.66
2017-12-17T03:54:31.431Z,1007.63
2017-12-17T03:55:11.999Z,1007.65
2017-12-17T03:55:52.544Z,1007.6
2017-12-17T03:56:33.136Z,1007.67
2017-12-17T03:57:13.704Z,1007.66
2017-12-17T03:57:54.289Z,1007.66
2017-12-17T03:58:34.859Z,1007.64
2017-12-17T03:59:15.438Z,1007.68
2017-12-17T03:59:56.016Z,1007.6
2017-12-17T04:00:36.586Z,1007.7
2017-12-17T04:01:17.147Z,1007.7
2017-12-17T04:01:57.713Z,1007.69
2017-12-17T04:02:38.284Z,1007.72
2017-12-17T04:03:18.857Z,1007.69
2017-12-17T04:03:59.426Z,1007.8
2017-12-17T04:04:40.006Z,1007.73
2017-12-17T04:05:20.562Z,1007.68
2017-12-17T04:06:01.151Z,1007.71
2017-12-17T04:06:41.737Z,1007.73
2017-12-17T04:07:22.318Z,1007.73
2017-12-17T04:08:02.923Z,1007.78
2017-12-17T04:08:43.462Z,1007.79
2017-12-17T04:09:24.032Z,1007.73
2017-12-17T04:10:04.592Z,1007.81
2017-12-17T04:10:45.167Z,1007.78
2017-12-17T04:11:25.734Z,1007.82
2017-12-17T04:12:06.312Z,1007.8
2017-12-17T04:12:46.876Z,1007.78
2017-12-17T04:13:27.454Z,1007.77
2017-12-17T04:14:08.024Z,1007.79
2017-12-17T04:14:48.584Z,1007.76
2017-12-17T04:15:29.150Z,1007.82
2017-12-17T04:16:09.721Z,1007.82
2017-12-17T04:16:50.313Z,1007.82
2017-12-17T04:17:30.887Z,1007.82
2017-12-17T04:18:11.452Z,1007.82
2017-12-17T04:18:52.024Z,1007.89
2017-12-17T04:19:32.584Z,1007.86
2017-12-17T04:20:13.159Z,1007.87
2017-12-17T04:20:53.751Z,1007.84
2017-12-17T04:21:34.340Z,1007.86
2017-12-17T04:22:14.889Z,1007.86
2017-12-17T04:22:55.466Z,1007.88
2017-12-17T04:23:36.058Z,1007.88
2017-12-17T04:24:16.636Z,1007.86
2017-12-17T04:24:57.202Z,1007.91
2017-12-17T04:25:37.808Z,1007.83
2017-12-17T04:26:18.409Z,1007.94
2017-12-17T04:26:58.990Z,1007.95
2017-12-17T04:27:39.554Z,1007.93
2017-12-17T04:28:20.124Z,1007.95
2017-12-17T04:29:00.704Z,1007.95
2017-12-17T04:29:41.291Z,1007.96
2017-12-17T04:30:21.878Z,1007.91
2017-12-17T04:31:02.490Z,1007.94
2017-12-17T04:31:43.083Z,1007.96
2017-12-17T04:32:23.654Z,1008
2017-12-17T04:33:04.224Z,1008.01
2017-12-17T04:33:44.791Z,1008
2017-12-17T04:34:25.346Z,1008.03
2017-12-17T04:35:05.938Z,1008.01
2017-12-17T04:35:46.516Z,1008.06
2017-12-17T04:36:27.104Z,1008.07
2017-12-17T04:37:07.679Z,1008.1
2017-12-17T04:37:48.239Z,1008.13
2017-12-17T04:38:28.813Z,1008.13
2017-12-17T04:39:09.386Z,1008.12
2017-12-17T04:39:49.975Z,1008.1
2017-12-17T04:40:30.547Z,1008.15
2017-12-17T04:41:11.101Z,1008.17
2017-12-17T04:41:51.681Z,1008.18
2017-12-17T04:42:32.274Z,1008.19
2017-12-17T04:43:12.850Z,1008.15
2017-12-17T04:43:53.423Z,1008.11
2017-12-17T04:44:34.012Z,1008.13
2017-12-17T04:45:14.574Z,1008.12
2017-12-17T04:45:55.165Z,1008.13
2017-12-17T04:46:35.727Z,1008.14
2017-12-17T04:47:16.313Z,1008.16
2017-12-17T04:47:56.892Z,1008.14
2017-12-17T04:48:37.467Z,1008.1
2017-12-17T04:49:18.026Z,1008.16
2017-12-17T04:49:58.619Z,1008.15
2017-12-17T04:50:39.211Z,1008.15
2017-12-17T04:51:19.788Z,1008.13
2017-12-17T04:52:00.379Z,1008.17
2017-12-17T04:52:40.987Z,1008.15
2017-12-17T04:53:21.543Z,1008.13
2017-12-17T04:54:02.147Z,1008.16
2017-12-17T04:56:15.036Z,1008.12
2017-12-17T04:56:55.599Z,1008.09
2017-12-17T04:57:36.170Z,1008.16
2017-12-17T04:58:16.750Z,1008.11
2017-12-17T04:58:57.301Z,1008.12
2017-12-17T04:59:37.898Z,1008.21
2017-12-17T05:00:18.468Z,1008.2
2017-12-17T05:00:59.038Z,1008.16
2017-12-17T05:01:39.615Z,1008.2
2017-12-17T05:02:20.206Z,1008.17
2017-12-17T05:03:00.772Z,1008.17
2017-12-17T05:03:41.362Z,1008.2
2017-12-17T05:04:21.992Z,1008.19
2017-12-17T05:05:02.554Z,1008.21
2017-12-17T05:05:44.056Z,1008.19
2017-12-17T05:06:24.670Z,1008.25
2017-12-17T05:07:05.255Z,1008.25
2017-12-17T05:07:45.834Z,1008.21
2017-12-17T05:08:26.386Z,1008.27
2017-12-17T05:09:07.530Z,1008.23
2017-12-17T05:09:48.098Z,1008.28
2017-12-17T05:10:28.656Z,1008.25
2017-12-17T05:11:09.259Z,1008.26
2017-12-17T05:11:49.849Z,1008.27
2017-12-17T05:12:30.458Z,1008.26
2017-12-17T05:13:11.033Z,1008.3
2017-12-17T05:13:51.679Z,1008.34
2017-12-17T05:14:32.262Z,1008.28
2017-12-17T05:15:12.855Z,1008.33
2017-12-17T05:15:53.421Z,1008.35
2017-12-17T05:16:33.984Z,1008.32
2017-12-17T05:17:14.563Z,1008.39
2017-12-17T05:17:55.205Z,1008.41
2017-12-17T05:18:35.762Z,1008.42
2017-12-17T05:19:16.350Z,1008.4
2017-12-17T05:19:56.947Z,1008.45
2017-12-17T05:20:37.518Z,1008.44
2017-12-17T05:21:18.153Z,1008.46
2017-12-17T05:21:58.700Z,1008.45
2017-12-17T05:22:39.265Z,1008.46
2017-12-17T05:23:19.830Z,1008.47
2017-12-17T05:24:00.441Z,1008.47
2017-12-17T05:24:40.994Z,1008.51
2017-12-17T05:25:21.578Z,1008.49
2017-12-17T05:26:02.147Z,1008.49
2017-12-17T05:26:42.759Z,1008.47
2017-12-17T05:27:23.509Z,1008.53
2017-12-17T05:28:04.110Z,1008.54
2017-12-17T05:28:44.671Z,1008.53
2017-12-17T05:29:25.219Z,1008.52
2017-12-17T05:30:05.840Z,1008.49
2017-12-17T05:30:46.455Z,1008.51
2017-12-17T05:31:27.016Z,1008.54
2017-12-17T05:32:07.625Z,1008.55
2017-12-17T05:32:48.199Z,1008.54
2017-12-17T05:33:29.601Z,1008.58
2017-12-17T05:34:10.274Z,1008.57
2017-12-17T05:34:51.412Z,1008.59
2017-12-17T05:35:32.052Z,1008.62
2017-12-17T05:36:12.639Z,1008.62
2017-12-17T05:36:53.297Z,1008.66
2017-12-17T05:37:34.298Z,1008.63
2017-12-17T05:38:16.072Z,1008.68
2017-12-17T05:38:56.654Z,1008.68
2017-12-17T05:39:37.217Z,1008.71
2017-12-17T05:40:17.786Z,1008.7
2017-12-17T05:40:58.377Z,1008.8
2017-12-17T05:41:38.925Z,1008.76
2017-12-17T05:42:19.511Z,1008.8
2017-12-17T05:43:00.094Z,1008.81
2017-12-17T05:43:40.658Z,1008.8
2017-12-17T05:44:21.264Z,1008.83
2017-12-17T05:45:01.847Z,1008.84
2017-12-17T05:45:42.856Z,1008.87
2017-12-17T05:46:23.420Z,1008.88
2017-12-17T05:47:04.007Z,1008.87
2017-12-17T05:47:44.568Z,1008.88
2017-12-17T05:48:25.181Z,1008.91
2017-12-17T05:49:05.749Z,1008.9
2017-12-17T05:49:46.317Z,1008.9
2017-12-17T05:50:26.875Z,1008.88
2017-12-17T05:51:07.484Z,1008.87
2017-12-17T05:51:48.071Z,1008.9
2017-12-17T05:52:28.635Z,1008.88
2017-12-17T05:53:09.226Z,1008.88
2017-12-17T05:53:49.805Z,1008.91
2017-12-17T05:54:30.385Z,1008.89
2017-12-17T05:55:11.001Z,1008.94
2017-12-17T05:55:51.661Z,1008.93
2017-12-17T05:56:32.245Z,1008.95
2017-12-17T05:57:12.868Z,1008.94
2017-12-17T05:57:53.454Z,1008.93
2017-12-17T05:58:34.059Z,1008.96
2017-12-17T05:59:14.718Z,1008.99
2017-12-17T05:59:55.320Z,1008.97
2017-12-17T06:00:35.924Z,1009
2017-12-17T06:01:16.537Z,1009.02
2017-12-17T06:01:57.225Z,1009
2017-12-17T06:02:37.799Z,1009.02
2017-12-17T06:03:18.410Z,1009.04
2017-12-17T06:03:59.015Z,1009.07
2017-12-17T06:04:39.571Z,1009.03
2017-12-17T06:05:20.155Z,1008.99
2017-12-17T06:06:00.716Z,1008.99
2017-12-17T06:06:41.288Z,1009.02
2017-12-17T06:07:21.872Z,1009
2017-12-17T06:08:02.425Z,1009
2017-12-17T06:08:43.018Z,1009.05
2017-12-17T06:09:23.586Z,1009.04
2017-12-17T06:10:04.490Z,1009.02
2017-12-17T06:10:45.408Z,1008.96
2017-12-17T06:11:26.197Z,1008.99
2017-12-17T06:12:06.897Z,1008.98
2017-12-17T06:12:47.615Z,1009.01
2017-12-17T06:13:28.277Z,1008.99
2017-12-17T06:14:09.033Z,1008.98
2017-12-17T06:14:49.579Z,1009
2017-12-17T06:15:30.135Z,1008.97
2017-12-17T06:16:10.711Z,1008.99
2017-12-17T06:16:51.284Z,1009.03
2017-12-17T06:17:31.846Z,1009.04
2017-12-17T06:18:12.487Z,1009.01
2017-12-17T06:18:53.456Z,1008.98
2017-12-17T06:19:34.270Z,1008.96
2017-12-17T06:20:15.219Z,1008.99
2017-12-17T06:20:56.285Z,1008.94
2017-12-17T06:21:37.006Z,1008.99
2017-12-17T06:22:17.594Z,1008.97
2017-12-17T06:22:58.248Z,1008.99
2017-12-17T06:23:38.954Z,1009.02
2017-12-17T06:24:19.653Z,1008.98
2017-12-17T06:25:00.909Z,1009.02
2017-12-17T06:25:41.838Z,1009.05
2017-12-17T06:26:22.409Z,1009.05
2017-12-17T06:27:03.241Z,1009.07
2017-12-17T06:27:43.796Z,1009.08
2017-12-17T06:28:24.615Z,1009.04
2017-12-17T06:29:05.508Z,1009.08
2017-12-17T06:29:46.129Z,1009.15
2017-12-17T06:30:27.038Z,1009.09
2017-12-17T06:31:08.028Z,1009.15
2017-12-17T06:31:48.901Z,1009.17
2017-12-17T06:32:29.587Z,1009.16
2017-12-17T06:33:10.443Z,1009.15
2017-12-17T06:33:51.278Z,1009.17
2017-12-17T06:34:31.872Z,1009.17
2017-12-17T06:35:12.583Z,1009.15
2017-12-17T06:35:53.904Z,1009.17
2017-12-17T06:36:34.620Z,1009.16
2017-12-17T06:37:15.245Z,1009.14
2017-12-17T06:37:55.834Z,1009.13
2017-12-17T06:38:36.506Z,1009.15
2017-12-17T06:39:17.161Z,1009.14
2017-12-17T06:39:58.029Z,1009.13
2017-12-17T06:40:38.746Z,1009.09
2017-12-17T06:41:19.329Z,1009.16
2017-12-17T06:41:59.907Z,1009.11
2017-12-17T06:42:41.014Z,1009.14
2017-12-17T06:43:22.101Z,1009.17
2017-12-17T06:44:02.917Z,1009.16
2017-12-17T06:44:44.347Z,1009.21
2017-12-17T06:45:25.294Z,1009.18
2017-12-17T06:46:06.190Z,1009.18
2017-12-17T06:46:47.004Z,1009.21
2017-12-17T06:47:28.569Z,1009.26
2017-12-17T06:48:09.495Z,1009.28
2017-12-17T06:48:50.587Z,1009.27
2017-12-17T06:49:31.569Z,1009.3
2017-12-17T06:50:12.422Z,1009.31
2017-12-17T06:50:53.227Z,1009.33
2017-12-17T06:51:34.060Z,1009.33
2017-12-17T06:52:14.933Z,1009.35
2017-12-17T06:52:56.388Z,1009.35
2017-12-17T06:53:37.644Z,1009.38
2017-12-17T06:54:18.534Z,1009.4
2017-12-17T06:54:59.589Z,1009.33
2017-12-17T06:55:40.527Z,1009.37
2017-12-17T06:56:21.204Z,1009.42
2017-12-17T06:57:01.835Z,1009.43
2017-12-17T06:57:42.763Z,1009.41
2017-12-17T06:58:23.478Z,1009.43
2017-12-17T06:59:04.348Z,1009.41
2017-12-17T06:59:45.165Z,1009.43
2017-12-17T07:00:26.161Z,1009.49
2017-12-17T07:01:06.868Z,1009.47
2017-12-17T07:01:47.801Z,1009.5
2017-12-17T07:02:28.483Z,1009.49
2017-12-17T07:03:09.064Z,1009.5
2017-12-17T07:03:49.675Z,1009.56
2017-12-17T07:04:30.264Z,1009.55
2017-12-17T07:05:10.827Z,1009.57
2017-12-17T07:05:51.404Z,1009.55
2017-12-17T07:06:32.015Z,1009.59
2017-12-17T07:07:12.559Z,1009.58
2017-12-17T07:07:53.389Z,1009.62
2017-12-17T07:08:34.264Z,1009.62
2017-12-17T07:09:15.176Z,1009.62
2017-12-17T07:09:55.947Z,1009.66
2017-12-17T07:10:36.724Z,1009.69
2017-12-17T07:11:17.454Z,1009.7
2017-12-17T07:11:58.374Z,1009.73
2017-12-17T07:12:39.325Z,1009.71
2017-12-17T07:13:20.374Z,1009.73
2017-12-17T07:14:01.146Z,1009.69
2017-12-17T07:14:42.004Z,1009.72
2017-12-17T07:15:22.837Z,1009.76
2017-12-17T07:16:03.802Z,1009.77
2017-12-17T07:16:44.640Z,1009.77
2017-12-17T07:17:25.503Z,1009.77
2017-12-17T07:18:06.340Z,1009.73
2017-12-17T07:18:47.092Z,1009.75
2017-12-17T07:19:28.604Z,1009.72
2017-12-17T07:20:09.591Z,1009.75
2017-12-17T07:20:50.341Z,1009.78
2017-12-17T07:21:31.105Z,1009.73
2017-12-17T07:22:11.801Z,1009.75
2017-12-17T07:22:52.520Z,1009.79
2017-12-17T07:23:33.349Z,1009.79
2017-12-17T07:24:13.925Z,1009.78
2017-12-17T07:24:54.503Z,1009.78
2017-12-17T07:25:35.118Z,1009.8
2017-12-17T07:26:15.714Z,1009.76
2017-12-17T07:26:56.328Z,1009.79
2017-12-17T07:27:36.914Z,1009.85
2017-12-17T07:28:17.501Z,1009.86
2017-12-17T07:28:58.092Z,1009.87
2017-12-17T07:29:38.670Z,1009.86
2017-12-17T07:30:19.243Z,1009.92
2017-12-17T07:30:59.843Z,1009.97
2017-12-17T07:31:40.434Z,1009.92
2017-12-17T07:32:21.085Z,1009.97
2017-12-17T07:33:01.663Z,1009.95
2017-12-17T07:33:42.268Z,1009.96
2017-12-17T07:34:22.835Z,1009.98
2017-12-17T07:35:03.416Z,1009.96
2017-12-17T07:35:43.982Z,1009.99
2017-12-17T07:36:24.567Z,1009.98
2017-12-17T07:37:05.134Z,1009.99
2017-12-17T07:37:46.556Z,1010.05
2017-12-17T07:38:27.120Z,1010.01
2017-12-17T07:39:07.703Z,1010
2017-12-17T07:39:48.305Z,1009.96
2017-12-17T07:40:28.876Z,1010.03
2017-12-17T07:41:09.427Z,1010.07
2017-12-17T07:41:49.998Z,1010.08
2017-12-17T07:42:30.552Z,1010.09
2017-12-17T07:43:11.112Z,1010.11
2017-12-17T07:43:51.694Z,1010.09
2017-12-17T07:44:32.267Z,1010.12
2017-12-17T07:45:12.843Z,1010.13
2017-12-17T07:45:53.435Z,1010.15
2017-12-17T07:46:34.025Z,1010.18
2017-12-17T07:47:14.588Z,1010.19
2017-12-17T07:47:55.166Z,1010.17
2017-12-17T07:48:35.731Z,1010.16
2017-12-17T07:49:16.310Z,1010.2
2017-12-17T07:49:56.869Z,1010.21
2017-12-17T07:50:37.436Z,1010.21
2017-12-17T07:51:17.990Z,1010.19
2017-12-17T07:51:58.603Z,1010.23
2017-12-17T07:52:39.218Z,1010.26
2017-12-17T07:53:19.836Z,1010.25
2017-12-17T07:54:00.424Z,1010.21
2017-12-17T07:54:41.024Z,1010.28
2017-12-17T07:55:21.627Z,1010.27
2017-12-17T07:56:02.224Z,1010.31
2017-12-17T07:56:42.809Z,1010.32
2017-12-17T07:57:23.415Z,1010.35
2017-12-17T07:58:03.986Z,1010.35
2017-12-17T07:58:44.523Z,1010.33
2017-12-17T07:59:25.096Z,1010.31
2017-12-17T08:00:05.943Z,1010.35
2017-12-17T08:00:46.632Z,1010.34
2017-12-17T08:01:27.238Z,1010.42
2017-12-17T08:02:07.817Z,1010.42
2017-12-17T08:02:48.430Z,1010.41
2017-12-17T08:03:29.030Z,1010.43
2017-12-17T08:04:09.606Z,1010.45
2017-12-17T08:04:50.232Z,1010.43
2017-12-17T08:05:30.813Z,1010.49
2017-12-17T08:06:11.436Z,1010.45
2017-12-17T08:06:52.035Z,1010.48
2017-12-17T08:07:32.606Z,1010.47
2017-12-17T08:08:13.235Z,1010.47
2017-12-17T08:08:53.853Z,1010.43
2017-12-17T08:09:34.428Z,1010.49
2017-12-17T08:10:15.056Z,1010.46
2017-12-17T08:10:55.933Z,1010.49
2017-12-17T08:11:36.578Z,1010.52
2017-12-17T08:12:17.159Z,1010.53
2017-12-17T08:12:57.753Z,1010.52
2017-12-17T08:13:38.545Z,1010.49
2017-12-17T08:14:19.109Z,1010.51
2017-12-17T08:14:59.702Z,1010.56